SWA2775 KLAX-KLAS
Flight info
| Callsign | SWA2775 |
|---|---|
| Flight time | N/A |
| Altitude | 29000 |
| Route | ORCKA5 MISEN RNDRZ4 |
| Aircraft | B737/M-SDE2E3FGHIRWXY/LB1 |
Departure
| Time | 2026-04-23 01:29 |
|---|---|
| Airport | Los Angeles International Airport (KLAX) |
Arrival
| Time | N/A |
|---|---|
| Airport | Harry Reid International Airport (KLAS) |
| Time | Latitude | Longitude | Altitude | Speed | Heading |
|---|---|---|---|---|---|
| 2026-04-23 01:18 | 33.94654 | -118.40063 | 92 ft | 0 kts | 272° |
| 2026-04-23 01:20 | 33.94654 | -118.40059 | 92 ft | 3 kts | 272° |
| 2026-04-23 01:21 | 33.94656 | -118.40028 | 92 ft | 4 kts | 260° |
| 2026-04-23 01:21 | 33.94658 | -118.40010 | 92 ft | 4 kts | 272° |
| 2026-04-23 01:21 | 33.94669 | -118.40018 | 91 ft | 4 kts | 0° |
| 2026-04-23 01:21 | 33.94692 | -118.40011 | 93 ft | 4 kts | 9° |
| 2026-04-23 01:22 | 33.94714 | -118.40011 | 92 ft | 0 kts | 358° |
| 2026-04-23 01:24 | 33.94716 | -118.40011 | 93 ft | 2 kts | 358° |
| 2026-04-23 01:24 | 33.94724 | -118.40011 | 93 ft | 0 kts | 1° |
| 2026-04-23 01:25 | 33.94728 | -118.40011 | 94 ft | 4 kts | 2° |
| 2026-04-23 01:25 | 33.94771 | -118.40009 | 92 ft | 5 kts | 3° |
| 2026-04-23 01:26 | 33.94803 | -118.40008 | 94 ft | 0 kts | 357° |
| 2026-04-23 01:26 | 33.94814 | -118.40010 | 94 ft | 2 kts | 348° |
| 2026-04-23 01:26 | 33.94834 | -118.40025 | 93 ft | 6 kts | 309° |
| 2026-04-23 01:27 | 33.94860 | -118.40074 | 95 ft | 7 kts | 326° |
| 2026-04-23 01:27 | 33.94915 | -118.40047 | 93 ft | 13 kts | 67° |
| 2026-04-23 01:27 | 33.94939 | -118.39943 | 92 ft | 4 kts | 63° |
| 2026-04-23 01:27 | 33.94950 | -118.39928 | 93 ft | 1 kts | 41° |
| 2026-04-23 01:28 | 33.95006 | -118.39916 | 93 ft | 17 kts | 343° |
| 2026-04-23 01:28 | 33.95029 | -118.40062 | 93 ft | 34 kts | 262° |
| 2026-04-23 01:28 | 33.94972 | -118.40638 | 96 ft | 103 kts | 263° |
| 2026-04-23 01:29 | 33.94864 | -118.41707 | 206 ft | 145 kts | 263° |
| 2026-04-23 01:29 | 33.94751 | -118.42961 | 743 ft | 156 kts | 263° |
| 2026-04-23 01:29 | 33.94632 | -118.44265 | 1492 ft | 159 kts | 265° |
| 2026-04-23 01:29 | 33.94497 | -118.45616 | 2043 ft | 176 kts | 264° |
| 2026-04-23 01:30 | 33.94333 | -118.47217 | 2280 ft | 207 kts | 265° |
| 2026-04-23 01:30 | 33.94172 | -118.49056 | 2596 ft | 234 kts | 265° |
| 2026-04-23 01:30 | 33.93997 | -118.51082 | 3136 ft | 251 kts | 265° |
| 2026-04-23 01:30 | 33.93803 | -118.53209 | 3843 ft | 260 kts | 264° |
| 2026-04-23 01:31 | 33.93590 | -118.55380 | 4731 ft | 263 kts | 264° |
| 2026-04-23 01:31 | 33.93366 | -118.57588 | 5540 ft | 267 kts | 264° |
| 2026-04-23 01:31 | 33.93172 | -118.59809 | 6516 ft | 264 kts | 269° |
| 2026-04-23 01:31 | 33.93055 | -118.62002 | 7504 ft | 264 kts | 264° |
| 2026-04-23 01:32 | 33.92342 | -118.64053 | 8423 ft | 273 kts | 234° |
| 2026-04-23 01:32 | 33.90876 | -118.65523 | 9466 ft | 280 kts | 212° |
| 2026-04-23 01:32 | 33.88984 | -118.66214 | 10369 ft | 295 kts | 190° |
| 2026-04-23 01:32 | 33.86834 | -118.65979 | 10706 ft | 331 kts | 168° |
| 2026-04-23 01:33 | 33.84652 | -118.64734 | 10905 ft | 366 kts | 149° |
| 2026-04-23 01:33 | 33.82725 | -118.62574 | 11255 ft | 391 kts | 129° |
| 2026-04-23 01:33 | 33.81436 | -118.59656 | 11899 ft | 402 kts | 106° |
| 2026-04-23 01:33 | 33.81188 | -118.56321 | 12666 ft | 405 kts | 81° |
| 2026-04-23 01:34 | 33.82025 | -118.53159 | 13402 ft | 402 kts | 56° |
| 2026-04-23 01:34 | 33.83844 | -118.50624 | 14122 ft | 393 kts | 30° |
| 2026-04-23 01:34 | 33.86214 | -118.49188 | 14737 ft | 385 kts | 14° |
| 2026-04-23 01:34 | 33.88682 | -118.47866 | 14956 ft | 395 kts | 24° |
| 2026-04-23 01:35 | 33.90971 | -118.45999 | 14993 ft | 400 kts | 31° |
| 2026-04-23 01:35 | 33.93067 | -118.43763 | 14988 ft | 408 kts | 43° |
| 2026-04-23 01:35 | 33.94771 | -118.40988 | 15008 ft | 414 kts | 52° |
| 2026-04-23 01:35 | 33.96330 | -118.38074 | 14999 ft | 415 kts | 52° |
| 2026-04-23 01:36 | 33.97911 | -118.35165 | 15004 ft | 415 kts | 52° |
| 2026-04-23 01:36 | 33.99521 | -118.32284 | 14999 ft | 415 kts | 51° |
| 2026-04-23 01:36 | 34.01148 | -118.29413 | 14997 ft | 414 kts | 51° |
| 2026-04-23 01:36 | 34.02776 | -118.26549 | 14996 ft | 414 kts | 51° |
| 2026-04-23 01:37 | 34.03598 | -118.25102 | 15016 ft | 414 kts | 51° |
| 2026-04-23 01:37 | 34.05025 | -118.22588 | 15006 ft | 414 kts | 51° |
| 2026-04-23 01:37 | 34.06652 | -118.19718 | 15002 ft | 414 kts | 51° |
| 2026-04-23 01:38 | 34.08278 | -118.16845 | 14990 ft | 414 kts | 51° |
| 2026-04-23 01:38 | 34.09899 | -118.13978 | 14984 ft | 414 kts | 51° |
| 2026-04-23 01:38 | 34.11522 | -118.11104 | 14999 ft | 414 kts | 51° |